Time;durP1;ratioP1;P1;durP2;ratioP2;P2;SDS_P1;SDS_P2;PMS_P1;PMS_P2;Temp;Humidity;BMP_temperature;BMP_pressure;BME280_temperature;BME280_humidity;BME280_pressure;Samples;Min_cycle;Max_cycle;Signal;HPM_P1;HPM_P2
2022/10/03 00:01:59;;;;;;;;;;;20.30;73.10;;;;;;5013680;28;986;-68
2022/10/03 00:04:30;;;;;;;;;;;20.30;73.10;;;;;;5017889;28;888;-68
2022/10/03 00:07:01;;;;;;;;;;;20.30;73.10;;;;;;5017607;28;1718;-69
2022/10/03 00:09:34;;;;;;;;;;;20.30;73.10;;;;;;5020145;28;1914;-68
2022/10/03 00:12:03;;;;;;;;;;;20.30;73.10;;;;;;5018821;28;823;-69
2022/10/03 00:14:31;;;;;;;;;;;20.30;73.10;;;;;;5021475;28;951;-69
2022/10/03 00:17:02;;;;;;;;;;;20.30;73.10;;;;;;5021767;28;1260;-69
2022/10/03 00:19:35;;;;;;;;;;;20.30;73.10;;;;;;5020787;28;1395;-68
2022/10/03 00:22:13;;;;;;;;;;;20.30;73.00;;;;;;5018585;28;908;-69
2022/10/03 00:24:48;;;;;;;;;;;20.30;73.10;;;;;;5017378;28;871;-69
2022/10/03 00:27:16;;;;;;;;;;;20.30;73.10;;;;;;5017304;28;1288;-69
2022/10/03 00:30:08;;;;;;;;;;;20.30;73.10;;;;;;5017576;28;1902;-68
2022/10/03 00:32:42;;;;;;;;;;;20.30;73.10;;;;;;5019076;28;1469;-70
2022/10/03 00:35:12;;;;;;;;;;;20.30;73.20;;;;;;5013925;28;889;-70
2022/10/03 00:37:48;;;;;;;;;;;20.30;73.10;;;;;;5017246;28;1268;-70
2022/10/03 00:40:13;;;;;;;;;;;20.30;73.20;;;;;;5019751;28;1509;-69
2022/10/03 00:42:58;;;;;;;;;;;20.30;73.10;;;;;;5020347;28;871;-69
2022/10/03 00:45:31;;;;;;;;;;;20.30;73.10;;;;;;5019200;28;836;-69
2022/10/03 00:48:03;;;;;;;;;;;20.30;73.10;;;;;;5016354;28;1914;-69
2022/10/03 00:50:44;;;;;;;;;;;20.30;73.10;;;;;;5023276;28;1474;-69
2022/10/03 00:53:17;;;;;;;;;;;20.30;73.20;;;;;;5020696;28;959;-70
2022/10/03 00:55:52;;;;;;;;;;;20.30;73.10;;;;;;5023389;28;1435;-70
2022/10/03 00:58:29;;;;;;;;;;;20.30;73.20;;;;;;5016638;28;772;-70
2022/10/03 01:00:57;;;;;;;;;;;20.30;73.20;;;;;;5020405;28;872;-70
2022/10/03 01:03:55;;;;;;;;;;;20.30;73.10;;;;;;5017652;28;862;-70
2022/10/03 01:06:27;;;;;;;;;;;20.30;73.20;;;;;;4999279;28;1350;-70
2022/10/03 01:08:53;;;;;;;;;;;20.30;73.20;;;;;;5024730;28;1906;-71
2022/10/03 01:11:38;;;;;;;;;;;20.30;73.20;;;;;;5023883;28;887;-69
2022/10/03 01:14:06;;;;;;;;;;;20.30;74.00;;;;;;5019308;28;1002;-70
2022/10/03 01:16:50;;;;;;;;;;;20.30;73.10;;;;;;5019924;28;1225;-69
2022/10/03 01:19:41;;;;;;;;;;;20.20;73.10;;;;;;5018945;28;808;-69
2022/10/03 01:22:26;;;;;;;;;;;20.30;73.20;;;;;;5016121;28;852;-69
2022/10/03 01:24:52;;;;;;;;;;;20.20;73.10;;;;;;5016118;28;928;-69
2022/10/03 01:27:27;;;;;;;;;;;20.20;73.10;;;;;;5018565;28;1324;-70
2022/10/03 01:30:21;;;;;;;;;;;20.30;74.00;;;;;;5017714;28;1907;-70
2022/10/03 01:32:49;;;;;;;;;;;20.20;73.10;;;;;;5016680;28;1172;-69
2022/10/03 01:35:14;;;;;;;;;;;20.20;73.20;;;;;;5019877;28;840;-69
2022/10/03 01:37:44;;;;;;;;;;;20.20;73.10;;;;;;5019036;28;1379;-69
2022/10/03 01:40:12;;;;;;;;;;;20.20;73.10;;;;;;5016722;28;947;-69
2022/10/03 01:42:40;;;;;;;;;;;20.20;73.20;;;;;;5021299;28;967;-69
2022/10/03 01:45:25;;;;;;;;;;;20.30;73.20;;;;;;5020128;28;883;-72
2022/10/03 01:48:05;;;;;;;;;;;20.30;73.20;;;;;;5028078;28;1233;-71
2022/10/03 01:50:57;;;;;;;;;;;20.30;73.20;;;;;;5023894;28;1022;-71
2022/10/03 01:53:29;;;;;;;;;;;20.20;73.10;;;;;;5022926;28;1331;-71
2022/10/03 01:55:55;;;;;;;;;;;20.20;73.10;;;;;;5015791;28;1367;-71
2022/10/03 01:58:28;;;;;;;;;;;20.20;73.10;;;;;;5021096;28;797;-71
2022/10/03 02:01:07;;;;;;;;;;;20.20;73.10;;;;;;5022886;28;1340;-70
2022/10/03 02:03:35;;;;;;;;;;;20.20;73.90;;;;;;5021891;28;913;-70
2022/10/03 02:06:09;;;;;;;;;;;20.20;73.20;;;;;;5022714;28;1359;-70
2022/10/03 02:08:41;;;;;;;;;;;20.20;73.10;;;;;;5024055;28;1960;-70
2022/10/03 02:11:08;;;;;;;;;;;20.20;73.20;;;;;;5021289;28;2129;-70
2022/10/03 02:13:39;;;;;;;;;;;20.20;73.20;;;;;;5021962;28;1337;-70
2022/10/03 02:16:24;;;;;;;;;;;20.20;73.10;;;;;;5023419;28;1438;-71
2022/10/03 02:18:53;;;;;;;;;;;20.20;73.10;;;;;;5019327;28;878;-69
2022/10/03 02:21:22;;;;;;;;;;;20.20;73.20;;;;;;5017726;28;833;-70
2022/10/03 02:23:48;;;;;;;;;;;20.20;73.20;;;;;;5017546;28;852;-70
2022/10/03 02:26:20;;;;;;;;;;;20.20;73.20;;;;;;5021244;28;1320;-70
2022/10/03 02:28:45;;;;;;;;;;;20.20;73.20;;;;;;5028365;28;1897;-70
2022/10/03 02:31:24;;;;;;;;;;;20.20;73.20;;;;;;5019737;28;1357;-70
2022/10/03 02:34:01;;;;;;;;;;;20.20;73.20;;;;;;5019877;28;1373;-70
2022/10/03 02:36:35;;;;;;;;;;;20.20;73.20;;;;;;5020312;28;1272;-69
2022/10/03 02:39:06;;;;;;;;;;;20.20;73.10;;;;;;5019664;28;876;-70
2022/10/03 02:41:31;;;;;;;;;;;20.20;73.20;;;;;;5018295;28;816;-70
2022/10/03 02:44:09;;;;;;;;;;;20.20;73.20;;;;;;5020398;28;1070;-70
2022/10/03 02:46:37;;;;;;;;;;;20.20;73.20;;;;;;5022162;28;1371;-70
2022/10/03 02:49:03;;;;;;;;;;;20.20;73.10;;;;;;5018359;28;1951;-69
2022/10/03 02:51:41;;;;;;;;;;;20.20;73.20;;;;;;5019820;28;848;-70
2022/10/03 02:54:13;;;;;;;;;;;20.20;73.20;;;;;;5018855;28;1058;-70
2022/10/03 02:56:57;;;;;;;;;;;20.20;73.20;;;;;;5023698;28;1285;-69
2022/10/03 02:59:30;;;;;;;;;;;20.20;73.20;;;;;;5018892;28;904;-70
2022/10/03 03:02:25;;;;;;;;;;;20.20;73.20;;;;;;5018196;28;903;-69
2022/10/03 03:05:10;;;;;;;;;;;20.20;73.20;;;;;;5005334;28;1210;-69
2022/10/03 03:08:11;;;;;;;;;;;20.20;73.20;;;;;;5021577;28;1372;-72
2022/10/03 03:10:37;;;;;;;;;;;20.20;73.20;;;;;;4982619;28;1298;-73
2022/10/03 03:13:06;;;;;;;;;;;20.20;73.20;;;;;;5013483;28;1098;-72
2022/10/03 03:15:50;;;;;;;;;;;20.20;73.20;;;;;;5016549;28;813;-73
2022/10/03 03:18:18;;;;;;;;;;;20.20;73.30;;;;;;5021038;28;899;-73
2022/10/03 03:21:02;;;;;;;;;;;20.20;73.30;;;;;;5019874;28;1220;-72
2022/10/03 03:23:35;;;;;;;;;;;20.20;73.20;;;;;;5020402;28;866;-72
2022/10/03 03:26:07;;;;;;;;;;;20.20;73.20;;;;;;5020500;28;1293;-72
2022/10/03 03:28:33;;;;;;;;;;;20.30;73.30;;;;;;5018383;28;1970;-71
2022/10/03 03:31:14;;;;;;;;;;;20.20;73.20;;;;;;5025342;28;1026;-72
2022/10/03 03:33:58;;;;;;;;;;;20.20;73.20;;;;;;5018340;28;809;-71
2022/10/03 03:36:26;;;;;;;;;;;20.20;73.20;;;;;;5015537;28;1271;-71
2022/10/03 03:38:52;;;;;;;;;;;20.20;73.20;;;;;;5017140;28;939;-72
2022/10/03 03:41:29;;;;;;;;;;;20.20;73.30;;;;;;5017437;28;801;-71
2022/10/03 03:44:07;;;;;;;;;;;20.20;73.30;;;;;;5015107;28;816;-71
2022/10/03 03:46:37;;;;;;;;;;;20.20;73.30;;;;;;5021543;28;1244;-71
2022/10/03 03:49:02;;;;;;;;;;;20.20;73.30;;;;;;5020560;28;1973;-71
2022/10/03 03:51:32;;;;;;;;;;;20.20;73.30;;;;;;5020105;28;883;-71
2022/10/03 03:54:18;;;;;;;;;;;20.20;73.20;;;;;;5022867;28;860;-71
2022/10/03 03:56:49;;;;;;;;;;;20.20;73.30;;;;;;5021706;28;1255;-71
2022/10/03 03:59:25;;;;;;;;;;;20.20;73.30;;;;;;5018714;28;978;-72
2022/10/03 04:01:54;;;;;;;;;;;20.20;73.30;;;;;;5022422;28;1000;-69
2022/10/03 04:04:40;;;;;;;;;;;20.20;73.20;;;;;;5021085;28;1212;-70
2022/10/03 04:07:17;;;;;;;;;;;20.20;73.20;;;;;;5017799;28;1292;-70
2022/10/03 04:10:03;;;;;;;;;;;20.20;73.30;;;;;;5017731;28;1914;-70
2022/10/03 04:12:45;;;;;;;;;;;20.20;73.30;;;;;;5021585;28;907;-70
2022/10/03 04:15:17;;;;;;;;;;;20.20;73.20;;;;;;5019734;28;935;-70
2022/10/03 04:20:39;;;;;;;;;;;20.20;73.30;;;;;;5019370;28;779;-69
2022/10/03 04:23:23;;;;;;;;;;;20.20;73.20;;;;;;5019308;28;1058;-70
2022/10/03 04:25:53;;;;;;;;;;;20.20;73.30;;;;;;5018345;28;1387;-73
2022/10/03 04:28:39;;;;;;;;;;;20.20;73.30;;;;;;5018755;28;1973;-70
2022/10/03 04:31:08;;;;;;;;;;;20.20;73.30;;;;;;4999666;28;1515;-71
2022/10/03 04:33:43;;;;;;;;;;;20.20;73.30;;;;;;5023159;28;1698;-68
2022/10/03 04:36:27;;;;;;;;;;;20.20;73.20;;;;;;5019086;28;1391;-70
2022/10/03 04:39:07;;;;;;;;;;;20.20;73.30;;;;;;5022717;28;1808;-70
2022/10/03 04:41:52;;;;;;;;;;;20.20;73.30;;;;;;5018340;28;1237;-69
2022/10/03 04:44:18;;;;;;;;;;;20.20;73.30;;;;;;5022883;28;1364;-68
2022/10/03 04:46:47;;;;;;;;;;;20.20;73.20;;;;;;5022969;28;1360;-68
2022/10/03 04:49:18;;;;;;;;;;;20.20;73.30;;;;;;5020485;28;1959;-69
2022/10/03 04:51:55;;;;;;;;;;;20.20;73.30;;;;;;5021494;28;1359;-72
2022/10/03 04:54:43;;;;;;;;;;;20.20;73.30;;;;;;5018338;28;1364;-68
2022/10/03 04:57:18;;;;;;;;;;;20.20;73.30;;;;;;5022227;28;1469;-70
2022/10/03 04:59:45;;;;;;;;;;;20.20;73.30;;;;;;5020705;28;1403;-70
2022/10/03 05:02:20;;;;;;;;;;;20.20;73.30;;;;;;5019843;28;1561;-70
2022/10/03 05:04:57;;;;;;;;;;;20.20;73.30;;;;;;5018278;28;1170;-71
2022/10/03 05:07:25;;;;;;;;;;;20.20;73.30;;;;;;5021294;28;1375;-71
2022/10/03 05:09:52;;;;;;;;;;;20.20;73.30;;;;;;5022215;28;1914;-70
2022/10/03 05:12:30;;;;;;;;;;;20.20;73.30;;;;;;5022229;28;1422;-69
2022/10/03 05:14:56;;;;;;;;;;;20.20;73.30;;;;;;5019196;28;1380;-71
2022/10/03 05:17:23;;;;;;;;;;;20.20;73.30;;;;;;5024543;28;1364;-71
2022/10/03 05:19:52;;;;;;;;;;;20.20;73.30;;;;;;5023941;28;1434;-70
2022/10/03 05:22:18;;;;;;;;;;;20.20;73.30;;;;;;5020571;28;1442;-69
2022/10/03 05:24:54;;;;;;;;;;;20.20;73.30;;;;;;5024448;28;1383;-69
2022/10/03 05:27:32;;;;;;;;;;;20.20;73.30;;;;;;5028157;28;1373;-71
2022/10/03 05:29:57;;;;;;;;;;;20.20;73.30;;;;;;5028215;28;1968;-70
2022/10/03 05:32:46;;;;;;;;;;;20.20;73.30;;;;;;5024923;28;1346;-69
2022/10/03 05:35:17;;;;;;;;;;;20.20;73.30;;;;;;5018324;28;1330;-69
2022/10/03 05:37:46;;;;;;;;;;;20.30;73.20;;;;;;5024667;28;1730;-69
2022/10/03 05:40:11;;;;;;;;;;;20.30;73.20;;;;;;5019545;28;1825;-71
2022/10/03 05:42:45;;;;;;;;;;;20.30;73.10;;;;;;5026587;28;1877;-70
2022/10/03 05:45:29;;;;;;;;;;;20.30;73.10;;;;;;5025448;28;1758;-71
2022/10/03 05:48:13;;;;;;;;;;;20.30;72.90;;;;;;5019844;28;4455;-73
2022/10/03 05:50:57;;;;;;;;;;;20.40;72.90;;;;;;5026407;28;1512;-70
2022/10/03 05:53:24;;;;;;;;;;;20.40;72.80;;;;;;5022901;28;1300;-71
2022/10/03 05:56:12;;;;;;;;;;;20.40;72.70;;;;;;5021686;28;1376;-70
2022/10/03 05:58:56;;;;;;;;;;;20.50;72.60;;;;;;5016807;28;1163;-68
2022/10/03 06:01:40;;;;;;;;;;;20.40;72.40;;;;;;5021044;28;872;-68
2022/10/03 06:04:11;;;;;;;;;;;20.50;72.40;;;;;;5018916;28;983;-68
2022/10/03 06:06:46;;;;;;;;;;;20.50;72.40;;;;;;5020266;28;1614;-69
2022/10/03 06:09:15;;;;;;;;;;;20.50;72.30;;;;;;5021502;28;1906;-68
2022/10/03 06:11:56;;;;;;;;;;;20.60;72.30;;;;;;5020389;28;1051;-68
2022/10/03 06:14:23;;;;;;;;;;;20.50;72.10;;;;;;5017782;28;1026;-69
2022/10/03 06:17:08;;;;;;;;;;;20.50;72.10;;;;;;5020949;28;1236;-69
2022/10/03 06:19:37;;;;;;;;;;;20.60;72.10;;;;;;5018766;28;888;-69
2022/10/03 06:22:21;;;;;;;;;;;20.50;72.00;;;;;;5018799;28;1114;-70
2022/10/03 06:24:58;;;;;;;;;;;20.50;72.00;;;;;;5018908;28;1038;-69
2022/10/03 06:27:30;;;;;;;;;;;20.60;72.00;;;;;;5017041;28;1583;-70
2022/10/03 06:29:55;;;;;;;;;;;20.60;72.00;;;;;;5022025;28;1907;-70
2022/10/03 06:32:45;;;;;;;;;;;20.60;72.00;;;;;;5021922;28;1375;-71
2022/10/03 06:35:19;;;;;;;;;;;20.60;72.00;;;;;;5018484;28;1295;-71
2022/10/03 06:37:48;;;;;;;;;;;20.60;72.00;;;;;;5020779;28;2187;-72
2022/10/03 06:40:23;;;;;;;;;;;20.60;71.90;;;;;;4999498;28;4675;-71
2022/10/03 06:42:51;;;;;;;;;;;20.60;72.00;;;;;;5009128;28;4635;-71
2022/10/03 06:45:23;;;;;;;;;;;20.60;72.00;;;;;;5019099;28;817;-70
2022/10/03 06:48:01;;;;;;;;;;;20.60;71.90;;;;;;5021606;28;1260;-72
2022/10/03 06:50:34;;;;;;;;;;;20.60;71.90;;;;;;5021739;28;1979;-69
2022/10/03 06:52:59;;;;;;;;;;;20.60;72.00;;;;;;5019582;28;830;-69
2022/10/03 06:55:45;;;;;;;;;;;20.60;72.00;;;;;;5020634;28;1283;-69
2022/10/03 06:58:18;;;;;;;;;;;20.60;72.00;;;;;;5019783;28;892;-69
2022/10/03 07:00:58;;;;;;;;;;;20.60;72.10;;;;;;5018404;28;2343;-70
2022/10/03 07:03:30;;;;;;;;;;;20.60;72.10;;;;;;5007023;28;4539;-69
2022/10/03 07:06:10;;;;;;;;;;;20.60;72.10;;;;;;5016960;28;4642;-69
2022/10/03 07:08:53;;;;;;;;;;;20.60;72.00;;;;;;5017973;28;2198;-69
2022/10/03 07:11:28;;;;;;;;;;;20.60;72.10;;;;;;5019055;28;1279;-70
2022/10/03 07:13:56;;;;;;;;;;;20.60;72.00;;;;;;5003453;28;1511;-69
2022/10/03 07:16:30;;;;;;;;;;;20.60;72.10;;;;;;5019353;28;1299;-69
2022/10/03 07:19:05;;;;;;;;;;;20.60;72.10;;;;;;5019020;28;1212;-69
2022/10/03 07:21:39;;;;;;;;;;;20.50;72.00;;;;;;5027858;28;1404;-69
2022/10/03 07:24:09;;;;;;;;;;;20.60;72.10;;;;;;5019611;28;773;-70
2022/10/03 07:26:52;;;;;;;;;;;20.50;72.00;;;;;;5015656;28;1933;-71
2022/10/03 07:29:30;;;;;;;;;;;20.50;72.10;;;;;;5021634;28;1894;-70
2022/10/03 07:32:10;;;;;;;;;;;20.50;72.10;;;;;;5022890;28;1323;-70
2022/10/03 07:34:42;;;;;;;;;;;20.50;72.10;;;;;;5020170;28;1483;-70
2022/10/03 07:40:03;;;;;;;;;;;20.50;72.10;;;;;;5016793;28;830;-69
2022/10/03 07:42:31;;;;;;;;;;;20.50;72.10;;;;;;5018865;28;1291;-68
2022/10/03 07:45:02;;;;;;;;;;;20.50;72.10;;;;;;5022307;28;907;-68
2022/10/03 07:47:40;;;;;;;;;;;20.50;72.10;;;;;;5017618;28;1303;-68
2022/10/03 07:50:21;;;;;;;;;;;20.50;72.10;;;;;;5020868;28;1898;-67
2022/10/03 07:53:09;;;;;;;;;;;20.50;72.10;;;;;;5017931;28;891;-67
2022/10/03 07:55:53;;;;;;;;;;;20.50;72.10;;;;;;5018715;28;923;-68
2022/10/03 07:58:41;;;;;;;;;;;20.50;72.10;;;;;;5019617;28;876;-69
2022/10/03 08:01:16;;;;;;;;;;;20.50;72.20;;;;;;5019440;28;1579;-68
2022/10/03 08:03:53;;;;;;;;;;;20.50;72.20;;;;;;5003085;28;1055;-71
2022/10/03 08:06:23;;;;;;;;;;;20.50;72.20;;;;;;4996632;28;4168;-69
2022/10/03 08:08:53;;;;;;;;;;;20.50;72.20;;;;;;5017700;28;1991;-69
2022/10/03 08:11:37;;;;;;;;;;;20.50;72.30;;;;;;5019026;28;1002;-70
2022/10/03 08:14:10;;;;;;;;;;;20.50;72.20;;;;;;5016571;28;967;-70
2022/10/03 08:16:36;;;;;;;;;;;20.50;72.20;;;;;;5018187;28;1301;-69
2022/10/03 08:19:08;;;;;;;;;;;20.50;72.30;;;;;;5015963;28;868;-69
2022/10/03 08:21:42;;;;;;;;;;;20.50;72.20;;;;;;5014628;28;852;-69
2022/10/03 08:24:11;;;;;;;;;;;20.50;72.30;;;;;;5016114;28;1372;-67
2022/10/03 08:26:40;;;;;;;;;;;20.50;72.20;;;;;;5017371;28;2183;-71
2022/10/03 08:29:19;;;;;;;;;;;20.50;72.20;;;;;;5016245;28;1970;-72
2022/10/03 08:31:51;;;;;;;;;;;20.50;72.20;;;;;;5017438;28;1366;-71
2022/10/03 08:34:35;;;;;;;;;;;20.50;72.30;;;;;;5018191;28;871;-71
2022/10/03 08:37:01;;;;;;;;;;;20.50;72.20;;;;;;5017894;28;1253;-71
2022/10/03 08:39:30;;;;;;;;;;;20.50;72.30;;;;;;5019725;28;871;-70
2022/10/03 08:42:15;;;;;;;;;;;20.50;72.30;;;;;;5020370;28;1026;-70
2022/10/03 08:44:44;;;;;;;;;;;20.50;72.30;;;;;;5018601;28;883;-71
2022/10/03 08:47:28;;;;;;;;;;;20.50;72.40;;;;;;5019234;28;1292;-70
2022/10/03 08:49:53;;;;;;;;;;;20.50;72.40;;;;;;5018588;28;1910;-70
2022/10/03 08:52:25;;;;;;;;;;;20.50;72.40;;;;;;5019319;28;907;-70
2022/10/03 08:54:50;;;;;;;;;;;20.50;73.20;;;;;;5023344;28;943;-70
2022/10/03 08:57:19;;;;;;;;;;;20.50;72.50;;;;;;5022797;28;1291;-70
2022/10/03 08:59:50;;;;;;;;;;;20.50;72.40;;;;;;5021376;28;1034;-68
2022/10/03 09:02:35;;;;;;;;;;;20.50;72.50;;;;;;5020110;28;1035;-68
2022/10/03 09:05:18;;;;;;;;;;;20.50;72.50;;;;;;5019054;28;1363;-68
2022/10/03 09:07:49;;;;;;;;;;;20.50;72.50;;;;;;5020634;28;1273;-69
2022/10/03 09:10:33;;;;;;;;;;;20.40;72.50;;;;;;5022014;28;1975;-69
2022/10/03 09:12:58;;;;;;;;;;;20.50;72.50;;;;;;5020539;28;856;-69
2022/10/03 09:15:41;;;;;;;;;;;20.50;72.50;;;;;;5020627;28;848;-70
2022/10/03 09:18:25;;;;;;;;;;;20.50;72.50;;;;;;5024553;28;1081;-69
2022/10/03 09:20:52;;;;;;;;;;;20.50;72.60;;;;;;5021181;28;928;-70
2022/10/03 09:23:25;;;;;;;;;;;20.50;72.50;;;;;;5019989;28;903;-69
2022/10/03 09:26:09;;;;;;;;;;;20.50;72.60;;;;;;5022241;28;2318;-69
2022/10/03 09:28:38;;;;;;;;;;;20.40;72.60;;;;;;5023804;28;1968;-68
2022/10/03 09:31:07;;;;;;;;;;;20.50;72.60;;;;;;5024228;28;1316;-69
2022/10/03 09:33:38;;;;;;;;;;;20.50;72.60;;;;;;5021807;28;1520;-70
2022/10/03 09:36:12;;;;;;;;;;;20.50;72.60;;;;;;5020513;28;1285;-69
2022/10/03 09:38:50;;;;;;;;;;;20.50;72.70;;;;;;5024027;28;1015;-69
2022/10/03 09:41:35;;;;;;;;;;;20.50;72.70;;;;;;5020879;28;845;-70
2022/10/03 09:44:22;;;;;;;;;;;20.40;72.60;;;;;;5020695;28;828;-69
2022/10/03 09:47:21;;;;;;;;;;;20.50;72.70;;;;;;5023969;28;1260;-70
2022/10/03 09:49:36;;;;;;;;;;;20.50;72.70;;;;;;5023272;28;1973;-68
2022/10/03 09:52:04;;;;;;;;;;;20.40;72.70;;;;;;5020414;28;1015;-69
2022/10/03 09:54:53;;;;;;;;;;;20.50;72.70;;;;;;5020700;28;879;-70
2022/10/03 09:57:37;;;;;;;;;;;20.50;72.80;;;;;;5011928;28;1276;-69
2022/10/03 10:00:22;;;;;;;;;;;20.50;72.70;;;;;;5022544;28;919;-70
2022/10/03 10:02:47;;;;;;;;;;;20.50;72.70;;;;;;5019142;28;833;-71
2022/10/03 10:05:25;;;;;;;;;;;20.50;72.70;;;;;;5021560;28;988;-71
2022/10/03 10:08:01;;;;;;;;;;;20.50;72.80;;;;;;5028402;28;1300;-71
2022/10/03 10:10:37;;;;;;;;;;;20.50;72.80;;;;;;5020607;28;1966;-72
2022/10/03 10:13:15;;;;;;;;;;;20.40;72.70;;;;;;5021559;28;815;-71
2022/10/03 10:15:56;;;;;;;;;;;20.40;72.70;;;;;;5020460;28;1248;-71
2022/10/03 10:18:34;;;;;;;;;;;20.40;72.70;;;;;;5019724;28;864;-71
2022/10/03 10:21:02;;;;;;;;;;;20.40;72.80;;;;;;5021092;28;1011;-71
2022/10/03 10:23:36;;;;;;;;;;;20.40;72.80;;;;;;5020800;28;813;-71
2022/10/03 10:26:02;;;;;;;;;;;20.40;72.80;;;;;;5016860;28;1291;-71
2022/10/03 10:28:31;;;;;;;;;;;20.40;72.80;;;;;;5023513;28;1965;-68
2022/10/03 10:31:02;;;;;;;;;;;20.40;73.00;;;;;;5024634;28;1731;-69
2022/10/03 10:33:47;;;;;;;;;;;20.50;73.00;;;;;;5021815;28;1439;-69
2022/10/03 10:36:12;;;;;;;;;;;20.50;72.90;;;;;;5020819;28;1386;-69
2022/10/03 10:38:38;;;;;;;;;;;20.40;73.10;;;;;;5023287;28;1380;-69
2022/10/03 10:41:13;;;;;;;;;;;20.40;73.00;;;;;;5025251;28;1271;-69
2022/10/03 10:43:54;;;;;;;;;;;20.40;73.10;;;;;;5022002;28;1232;-68
2022/10/03 10:46:23;;;;;;;;;;;20.40;73.10;;;;;;5024920;28;1471;-70
2022/10/03 10:49:07;;;;;;;;;;;20.40;73.10;;;;;;5025399;28;1914;-70
2022/10/03 10:51:32;;;;;;;;;;;20.40;73.10;;;;;;5024041;28;1305;-70
2022/10/03 10:54:17;;;;;;;;;;;20.40;73.20;;;;;;5023103;28;1282;-72
2022/10/03 10:56:45;;;;;;;;;;;20.40;73.10;;;;;;5021899;28;1316;-71
2022/10/03 10:59:23;;;;;;;;;;;20.40;73.20;;;;;;5019238;28;991;-71
2022/10/03 11:02:07;;;;;;;;;;;20.50;73.10;;;;;;5020496;28;1168;-70
2022/10/03 11:04:35;;;;;;;;;;;20.40;73.20;;;;;;5018586;28;840;-70
2022/10/03 11:07:06;;;;;;;;;;;20.50;73.30;;;;;;5020498;28;2124;-71
2022/10/03 11:09:32;;;;;;;;;;;20.50;73.30;;;;;;5020034;28;1914;-70
2022/10/03 11:12:16;;;;;;;;;;;20.50;73.30;;;;;;5021125;28;1341;-70
2022/10/03 11:14:44;;;;;;;;;;;20.50;73.30;;;;;;5021383;28;1670;-70
2022/10/03 11:17:16;;;;;;;;;;;20.50;73.40;;;;;;5023055;28;2005;-69
2022/10/03 11:19:59;;;;;;;;;;;20.50;73.40;;;;;;5020669;28;1419;-70
2022/10/03 11:22:31;;;;;;;;;;;20.40;73.30;;;;;;5026532;28;1418;-70
2022/10/03 11:25:19;;;;;;;;;;;20.50;73.40;;;;;;5024500;28;1427;-70
2022/10/03 11:28:03;;;;;;;;;;;20.40;73.40;;;;;;5001577;28;2098;-70
2022/10/03 11:30:48;;;;;;;;;;;20.50;73.60;;;;;;5019393;28;2009;-69
2022/10/03 11:33:20;;;;;;;;;;;20.50;73.60;;;;;;5022066;28;1451;-68
2022/10/03 11:35:52;;;;;;;;;;;20.40;73.70;;;;;;5023929;28;1528;-69
2022/10/03 11:38:19;;;;;;;;;;;20.50;73.70;;;;;;5020156;28;1403;-69
2022/10/03 11:41:07;;;;;;;;;;;20.40;74.20;;;;;;5021027;28;1599;-69
2022/10/03 11:43:36;;;;;;;;;;;20.50;74.40;;;;;;5017750;28;1278;-69
2022/10/03 11:46:17;;;;;;;;;;;20.50;74.30;;;;;;5017212;28;1348;-69
2022/10/03 11:49:02;;;;;;;;;;;20.50;74.40;;;;;;5017259;28;1918;-69
2022/10/03 11:51:41;;;;;;;;;;;20.50;74.50;;;;;;5022125;28;1314;-70
2022/10/03 11:54:10;;;;;;;;;;;20.50;74.60;;;;;;5018455;28;792;-70
2022/10/03 11:56:39;;;;;;;;;;;20.50;74.70;;;;;;5020617;28;1340;-70
2022/10/03 11:59:07;;;;;;;;;;;20.50;74.70;;;;;;5019479;28;1042;-70
2022/10/03 12:01:38;;;;;;;;;;;20.50;74.70;;;;;;5018795;28;943;-70
2022/10/03 12:04:17;;;;;;;;;;;20.50;74.70;;;;;;5019405;28;963;-70
2022/10/03 12:09:43;;;;;;;;;;;20.50;74.20;;;;;;5019264;28;1910;-69
2022/10/03 12:12:14;;;;;;;;;;;20.50;74.30;;;;;;5020311;28;954;-69
2022/10/03 12:14:45;;;;;;;;;;;20.40;74.60;;;;;;5021970;28;792;-70
2022/10/03 12:17:11;;;;;;;;;;;20.50;74.70;;;;;;5023143;28;1343;-69
2022/10/03 12:19:59;;;;;;;;;;;20.40;74.60;;;;;;5021304;28;812;-69
2022/10/03 12:22:31;;;;;;;;;;;20.50;74.70;;;;;;5010898;28;1306;-69
2022/10/03 12:25:01;;;;;;;;;;;20.50;74.80;;;;;;5020711;28;1404;-69
2022/10/03 12:27:37;;;;;;;;;;;20.40;74.70;;;;;;5020323;28;1459;-70
2022/10/03 12:30:03;;;;;;;;;;;20.50;74.80;;;;;;5018678;28;1922;-71
2022/10/03 12:32:38;;;;;;;;;;;20.50;74.80;;;;;;5021584;28;1370;-70
2022/10/03 12:35:24;;;;;;;;;;;20.50;74.80;;;;;;5019724;28;940;-69
2022/10/03 12:38:09;;;;;;;;;;;20.50;74.80;;;;;;5018887;28;1249;-69
2022/10/03 12:40:39;;;;;;;;;;;20.40;74.80;;;;;;5015146;28;1411;-71
2022/10/03 12:43:12;;;;;;;;;;;20.50;74.90;;;;;;5019345;28;1193;-70
2022/10/03 12:45:46;;;;;;;;;;;20.50;75.00;;;;;;5021921;28;1268;-72
2022/10/03 12:48:21;;;;;;;;;;;20.50;75.00;;;;;;5018817;28;935;-69
2022/10/03 12:51:05;;;;;;;;;;;20.50;75.00;;;;;;5019604;28;852;-70
2022/10/03 12:53:31;;;;;;;;;;;20.50;75.00;;;;;;5019779;28;1697;-69
2022/10/03 12:56:17;;;;;;;;;;;20.50;74.90;;;;;;5016901;28;1283;-69
2022/10/03 12:58:49;;;;;;;;;;;20.50;75.00;;;;;;5017237;28;836;-69
2022/10/03 13:01:20;;;;;;;;;;;20.50;74.90;;;;;;5020388;28;916;-71
2022/10/03 13:03:55;;;;;;;;;;;20.40;74.80;;;;;;5015355;28;1385;-69
2022/10/03 13:06:27;;;;;;;;;;;20.50;74.90;;;;;;5019772;28;1525;-68
2022/10/03 13:09:00;;;;;;;;;;;20.50;74.90;;;;;;5020314;28;1906;-71
2022/10/03 13:11:31;;;;;;;;;;;20.50;74.90;;;;;;5021537;28;1365;-69
2022/10/03 13:14:14;;;;;;;;;;;20.40;74.80;;;;;;5019156;28;1537;-70
2022/10/03 13:16:59;;;;;;;;;;;20.50;74.80;;;;;;5022235;28;2161;-69
2022/10/03 13:19:26;;;;;;;;;;;20.40;74.80;;;;;;5024375;28;1929;-71
2022/10/03 13:22:06;;;;;;;;;;;20.50;74.80;;;;;;5024022;28;1319;-70
2022/10/03 13:24:31;;;;;;;;;;;20.50;74.80;;;;;;5021085;28;1524;-69
2022/10/03 13:26:59;;;;;;;;;;;20.50;74.80;;;;;;5024108;28;2776;-67
2022/10/03 13:29:25;;;;;;;;;;;20.50;74.70;;;;;;5026525;28;2524;-68
2022/10/03 13:31:57;;;;;;;;;;;20.50;74.80;;;;;;5023125;28;2776;-71
2022/10/03 13:34:26;;;;;;;;;;;20.50;74.80;;;;;;5026529;28;2765;-71
2022/10/03 13:37:01;;;;;;;;;;;20.50;74.60;;;;;;5029291;28;2268;-68
2022/10/03 13:39:28;;;;;;;;;;;20.50;74.60;;;;;;5025907;28;1009;-69
2022/10/03 13:41:58;;;;;;;;;;;20.50;74.30;;;;;;5022981;28;924;-68
2022/10/03 13:44:34;;;;;;;;;;;20.50;74.50;;;;;;5021208;28;926;-69
2022/10/03 13:47:22;;;;;;;;;;;20.50;74.60;;;;;;5021921;28;1264;-69
2022/10/03 13:50:01;;;;;;;;;;;20.40;74.60;;;;;;5020635;28;1983;-70
2022/10/03 13:52:35;;;;;;;;;;;20.50;74.70;;;;;;5020364;28;872;-71
2022/10/03 13:55:19;;;;;;;;;;;20.50;74.50;;;;;;5018511;28;828;-71
2022/10/03 13:58:04;;;;;;;;;;;20.40;74.40;;;;;;5020812;28;1360;-69
2022/10/03 14:00:32;;;;;;;;;;;20.50;74.50;;;;;;5021159;28;916;-70
2022/10/03 14:03:07;;;;;;;;;;;20.50;74.50;;;;;;5025603;28;1007;-70
2022/10/03 14:05:39;;;;;;;;;;;20.50;74.50;;;;;;5022209;28;1074;-70
2022/10/03 14:08:09;;;;;;;;;;;20.50;74.50;;;;;;5020762;28;927;-69
2022/10/03 14:10:49;;;;;;;;;;;20.50;74.60;;;;;;5024286;28;1895;-69
2022/10/03 14:13:28;;;;;;;;;;;20.40;74.60;;;;;;5022170;28;924;-70
2022/10/03 14:15:57;;;;;;;;;;;20.40;74.60;;;;;;5026863;28;1348;-69
2022/10/03 14:18:32;;;;;;;;;;;20.50;74.80;;;;;;5019280;28;911;-69
2022/10/03 14:21:09;;;;;;;;;;;20.40;74.80;;;;;;5021756;28;863;-69
2022/10/03 14:23:46;;;;;;;;;;;20.40;74.80;;;;;;5021313;28;907;-69
2022/10/03 14:26:17;;;;;;;;;;;20.50;75.00;;;;;;5020521;28;1292;-69
2022/10/03 14:28:49;;;;;;;;;;;20.40;74.90;;;;;;5024418;28;1898;-70
2022/10/03 14:31:23;;;;;;;;;;;20.40;74.90;;;;;;5021511;28;1509;-69
2022/10/03 14:34:07;;;;;;;;;;;20.50;75.10;;;;;;5019296;28;859;-69
2022/10/03 14:36:38;;;;;;;;;;;20.40;75.00;;;;;;5018401;28;1288;-69
2022/10/03 14:39:10;;;;;;;;;;;20.50;75.10;;;;;;5024091;28;934;-69
2022/10/03 14:41:35;;;;;;;;;;;20.50;75.20;;;;;;5020947;28;1302;-68
2022/10/03 14:44:17;;;;;;;;;;;20.50;75.20;;;;;;5017656;28;947;-69
2022/10/03 14:46:48;;;;;;;;;;;20.50;75.30;;;;;;5020980;28;1276;-69
2022/10/03 14:49:19;;;;;;;;;;;20.50;75.30;;;;;;5022579;28;1976;-69
2022/10/03 14:51:50;;;;;;;;;;;20.40;75.30;;;;;;5009324;28;2092;-69
2022/10/03 14:54:17;;;;;;;;;;;20.50;75.40;;;;;;5026922;28;2648;-69
2022/10/03 14:56:43;;;;;;;;;;;20.40;75.40;;;;;;5032996;28;2125;-69
2022/10/03 14:59:12;;;;;;;;;;;20.50;75.50;;;;;;5031364;28;2355;-69
2022/10/03 15:01:45;;;;;;;;;;;20.50;75.50;;;;;;5025366;28;1953;-71
2022/10/03 15:04:25;;;;;;;;;;;20.40;75.50;;;;;;5020692;28;896;-69
2022/10/03 15:06:54;;;;;;;;;;;20.50;75.60;;;;;;5005393;28;1281;-70
2022/10/03 15:09:21;;;;;;;;;;;20.50;75.70;;;;;;5021998;28;1914;-71
2022/10/03 15:11:48;;;;;;;;;;;20.50;75.60;;;;;;5023310;28;1136;-70
2022/10/03 15:14:14;;;;;;;;;;;20.50;75.70;;;;;;5022052;28;813;-71
2022/10/03 15:16:50;;;;;;;;;;;20.50;75.60;;;;;;5019391;28;1459;-72
2022/10/03 15:19:17;;;;;;;;;;;20.50;75.60;;;;;;5025418;28;836;-68
2022/10/03 15:21:46;;;;;;;;;;;20.50;75.60;;;;;;5020154;28;856;-69
2022/10/03 15:24:19;;;;;;;;;;;20.50;75.70;;;;;;5020154;28;816;-69
2022/10/03 15:26:46;;;;;;;;;;;20.50;75.80;;;;;;5019373;28;1366;-68